Time;durP1;ratioP1;P1;durP2;ratioP2;P2;SDS_P1;SDS_P2;PMS_P1;PMS_P2;Temp;Humidity;BMP_temperature;BMP_pressure;BME280_temperature;BME280_humidity;BME280_pressure;Samples;Min_cycle;Max_cycle;Signal;HPM_P1;HPM_P2
2023/06/04 00:00:20;;;;;;;1.40;0.87;;;;;;;16.71;77.64;99460.19;5052280;28;20225;-79
2023/06/04 00:02:47;;;;;;;1.27;0.97;;;;;;;16.67;78.87;99459.66;5052120;28;20203;-79
2023/06/04 00:05:14;;;;;;;1.87;1.13;;;;;;;16.60;79.50;99457.78;5051427;28;20212;-79
2023/06/04 00:07:42;;;;;;;1.10;1.00;;;;;;;16.61;79.59;99459.38;5051350;28;20639;-79
2023/06/04 00:10:10;;;;;;;1.53;0.90;;;;;;;16.63;77.84;99462.66;5051677;28;20227;-79
2023/06/04 00:12:36;;;;;;;1.27;1.10;;;;;;;16.58;77.63;99454.50;5052116;28;20236;-79
2023/06/04 00:15:04;;;;;;;1.30;1.10;;;;;;;16.55;78.77;99457.38;5051754;28;20229;-79
2023/06/04 00:17:31;;;;;;;0.97;0.87;;;;;;;16.54;79.77;99453.97;5051466;28;20200;-79
2023/06/04 00:19:57;;;;;;;1.00;0.80;;;;;;;16.55;80.14;99460.78;5051288;28;20705;-79
2023/06/04 00:22:25;;;;;;;1.67;1.20;;;;;;;16.58;79.91;99460.50;5051674;28;20196;-79
2023/06/04 00:24:53;;;;;;;1.47;0.90;;;;;;;16.50;80.59;99461.19;5051711;28;20216;-79
2023/06/04 00:27:20;;;;;;;1.40;1.00;;;;;;;16.49;79.52;99457.00;5051782;28;20211;-79
2023/06/04 00:29:47;;;;;;;0.80;0.80;;;;;;;16.52;79.78;99461.88;5051058;28;20199;-79
2023/06/04 00:32:14;;;;;;;1.60;1.10;;;;;;;16.47;80.26;99463.25;5051042;28;20242;-79
2023/06/04 00:34:41;;;;;;;1.70;0.90;;;;;;;16.46;79.39;99461.59;5050830;28;20196;-79
2023/06/04 00:37:08;;;;;;;0.90;0.80;;;;;;;16.46;79.63;99466.75;5051660;28;20230;-79
2023/06/04 00:39:34;;;;;;;0.90;0.90;;;;;;;16.47;80.29;99463.25;5051364;28;20200;-79
2023/06/04 00:42:03;;;;;;;2.80;0.80;;;;;;;16.44;78.95;99468.69;5051197;28;20630;-79
2023/06/04 00:44:30;;;;;;;6.33;1.10;;;;;;;16.44;78.81;99464.34;5051320;28;20204;-79
2023/06/04 00:46:57;;;;;;;3.20;0.90;;;;;;;16.42;80.23;99463.66;5051012;28;20475;-79
2023/06/04 00:49:24;;;;;;;1.87;1.10;;;;;;;16.42;81.73;99461.06;5051887;28;20210;-79
2023/06/04 00:51:52;;;;;;;1.20;0.90;;;;;;;16.45;79.68;99465.16;5051544;28;20707;-80
2023/06/04 00:54:20;;;;;;;1.53;1.00;;;;;;;16.43;80.70;99464.47;5051106;28;20288;-79
2023/06/04 00:56:48;;;;;;;2.30;0.90;;;;;;;16.41;80.25;99459.47;5051579;28;20226;-79
2023/06/04 00:59:17;;;;;;;1.07;0.97;;;;;;;16.37;79.78;99463.25;5051414;28;20615;-79
2023/06/04 01:01:50;;;;;;;1.57;1.00;;;;;;;16.35;79.63;99459.16;5051627;28;20251;-79
2023/06/04 01:04:22;;;;;;;2.70;1.20;;;;;;;16.33;78.56;99461.91;5051365;28;20203;-79
2023/06/04 01:06:51;;;;;;;0.70;0.70;;;;;;;16.29;79.05;99466.53;5054825;28;20227;-79
2023/06/04 01:09:19;;;;;;;1.30;1.10;;;;;;;16.32;78.12;99465.44;5055688;28;20298;-79
2023/06/04 01:11:46;;;;;;;3.23;0.90;;;;;;;16.32;78.23;99465.44;5054982;28;20220;-79
2023/06/04 01:14:13;;;;;;;1.23;0.80;;;;;;;16.27;78.22;99462.47;5054349;28;20228;-79
2023/06/04 01:16:49;;;;;;;1.77;1.03;;;;;;;16.29;78.33;99465.72;5055006;28;20227;-79
2023/06/04 01:19:47;;;;;;;1.53;0.83;;;;;;;16.27;75.56;99470.19;5055005;28;20199;-79
2023/06/04 01:22:28;;;;;;;0.93;0.83;;;;;;;16.27;75.64;99460.69;5055441;28;20261;-79
2023/06/04 01:25:01;;;;;;;1.40;1.10;;;;;;;16.20;78.32;99461.38;5054310;28;20702;-79
2023/06/04 01:27:28;;;;;;;1.20;1.03;;;;;;;16.17;77.31;99461.66;5054203;28;20203;-80
2023/06/04 01:29:56;;;;;;;0.80;0.77;;;;;;;16.18;75.69;99465.88;5054945;28;20216;-78
2023/06/04 01:32:24;;;;;;;0.97;0.70;;;;;;;16.21;75.23;99468.19;5055309;28;20215;-79
2023/06/04 01:34:51;;;;;;;2.03;1.07;;;;;;;16.24;76.21;99462.75;5054205;28;20235;-79
2023/06/04 01:37:18;;;;;;;1.30;0.87;;;;;;;16.22;77.68;99464.63;5054319;28;20672;-79
2023/06/04 01:39:45;;;;;;;1.63;1.00;;;;;;;16.12;76.76;99469.00;5054457;28;20249;-79
2023/06/04 01:42:12;;;;;;;1.30;0.90;;;;;;;16.12;77.20;99453.53;5054687;28;20695;-79
2023/06/04 01:44:39;;;;;;;1.50;1.00;;;;;;;16.11;78.35;99455.25;5054186;28;20588;-79
2023/06/04 01:47:06;;;;;;;2.13;0.90;;;;;;;16.08;78.21;99465.88;5054231;28;20203;-80
2023/06/04 01:49:34;;;;;;;2.57;1.03;;;;;;;16.03;77.83;99471.44;5054088;28;20199;-79
2023/06/04 01:52:01;;;;;;;2.67;1.50;;;;;;;16.07;78.12;99465.06;5054181;28;20699;-79
2023/06/04 01:54:29;;;;;;;1.97;1.20;;;;;;;16.04;75.98;99467.91;5054595;28;20231;-79
2023/06/04 01:56:56;;;;;;;1.30;0.83;;;;;;;16.03;76.83;99466.28;5054688;28;20200;-79
2023/06/04 01:59:23;;;;;;;0.80;0.80;;;;;;;16.06;76.97;99460.84;5054552;28;20192;-79
2023/06/04 02:01:50;;;;;;;3.17;1.10;;;;;;;16.00;74.28;99474.31;5053799;28;20227;-79
2023/06/04 02:04:17;;;;;;;1.40;0.83;;;;;;;16.01;76.14;99473.34;5053632;28;20228;-79
2023/06/04 02:06:45;;;;;;;1.93;0.93;;;;;;;16.01;75.87;99470.75;5053844;28;20660;-79
2023/06/04 02:09:12;;;;;;;1.43;1.20;;;;;;;15.98;77.42;99471.03;5053275;28;20205;-79
2023/06/04 02:11:39;;;;;;;1.17;1.00;;;;;;;15.99;76.49;99475.22;5054170;28;20223;-79
2023/06/04 02:14:05;;;;;;;0.70;0.70;;;;;;;15.98;77.50;99488.28;5054110;28;20239;-79
2023/06/04 02:16:32;;;;;;;0.90;0.83;;;;;;;15.99;77.15;99490.69;5052607;28;20289;-79
2023/06/04 02:19:00;;;;;;;2.30;1.30;;;;;;;15.97;77.59;99487.47;5053502;28;20214;-79
2023/06/04 02:21:27;;;;;;;1.60;1.00;;;;;;;15.92;77.79;99499.13;5053719;28;20263;-79
2023/06/04 02:23:55;;;;;;;1.70;1.10;;;;;;;15.93;76.95;99491.25;5053628;28;20215;-79
2023/06/04 02:26:23;;;;;;;1.17;1.03;;;;;;;15.89;75.98;99495.06;5053044;28;20234;-79
2023/06/04 02:28:50;;;;;;;5.07;1.13;;;;;;;15.82;78.03;99488.78;5053801;28;20592;-79
2023/06/04 02:31:17;;;;;;;0.80;0.77;;;;;;;15.84;77.93;99492.06;5052841;28;20224;-80
2023/06/04 02:33:44;;;;;;;0.77;0.77;;;;;;;15.84;76.61;99502.38;5053208;28;20227;-79
2023/06/04 02:36:11;;;;;;;1.13;0.90;;;;;;;15.85;78.24;99496.25;5053176;28;20227;-79
2023/06/04 02:38:38;;;;;;;3.57;0.90;;;;;;;15.89;78.47;99510.53;5054284;28;20203;-79
2023/06/04 02:41:07;;;;;;;1.30;0.90;;;;;;;15.82;78.33;99509.41;5052797;28;20226;-79
2023/06/04 02:43:34;;;;;;;2.23;0.93;;;;;;;15.84;77.70;99510.91;5052655;28;20206;-79
2023/06/04 02:46:01;;;;;;;1.83;1.30;;;;;;;15.81;76.02;99510.38;5053040;28;20365;-79
2023/06/04 02:48:28;;;;;;;0.90;0.70;;;;;;;15.83;78.51;99516.22;5053411;28;20210;-79
2023/06/04 02:50:55;;;;;;;5.47;1.00;;;;;;;15.83;77.75;99521.38;5052664;28;20269;-79
2023/06/04 02:53:23;;;;;;;0.77;0.70;;;;;;;15.81;78.18;99518.13;5052633;28;20289;-79
2023/06/04 02:55:51;;;;;;;1.50;1.23;;;;;;;15.78;78.07;99518.38;5053767;28;20223;-79
2023/06/04 02:58:21;;;;;;;1.43;1.07;;;;;;;15.78;78.21;99513.22;5052865;28;20207;-79
2023/06/04 03:00:48;;;;;;;4.13;1.13;;;;;;;15.74;77.95;99517.03;5053274;28;20623;-79
2023/06/04 03:03:15;;;;;;;1.60;0.93;;;;;;;15.73;79.39;99523.13;5052534;28;20202;-79
2023/06/04 03:05:42;;;;;;;1.23;0.93;;;;;;;15.73;77.40;99526.50;5053385;28;20636;-79
2023/06/04 03:08:09;;;;;;;1.43;1.10;;;;;;;15.70;77.43;99526.78;5053153;28;20203;-79
2023/06/04 03:10:36;;;;;;;1.57;1.13;;;;;;;15.68;77.37;99527.84;5052868;28;20223;-79
2023/06/04 03:13:03;;;;;;;1.37;0.80;;;;;;;15.66;78.48;99527.97;5053762;28;20207;-79
2023/06/04 03:15:31;;;;;;;2.47;1.27;;;;;;;15.65;78.41;99522.94;5053190;28;20227;-79
2023/06/04 03:17:59;;;;;;;1.47;1.10;;;;;;;15.68;79.11;99527.84;5054004;28;20196;-78
2023/06/04 03:20:26;;;;;;;1.07;0.97;;;;;;;15.63;80.17;99536.78;5053425;28;20272;-78
2023/06/04 03:22:53;;;;;;;1.43;0.97;;;;;;;15.61;79.28;99536.09;5053089;28;20665;-79
2023/06/04 03:25:19;;;;;;;1.00;0.80;;;;;;;15.67;81.29;99541.66;5051877;28;20279;-79
2023/06/04 03:27:46;;;;;;;1.23;1.00;;;;;;;15.66;79.61;99545.19;5052195;28;20207;-79
2023/06/04 03:30:13;;;;;;;1.27;0.90;;;;;;;15.67;79.95;99547.63;5052182;28;20220;-78
2023/06/04 03:32:43;;;;;;;1.50;0.83;;;;;;;15.61;80.32;99548.97;5054522;28;20774;-79
2023/06/04 03:35:10;;;;;;;1.33;0.90;;;;;;;15.62;79.50;99550.63;5053191;28;20242;-79
2023/06/04 03:37:37;;;;;;;4.10;0.77;;;;;;;15.68;80.13;99548.47;5053065;28;20237;-79
2023/06/04 03:40:06;;;;;;;1.87;1.03;;;;;;;15.68;81.11;99549.31;5051748;28;20230;-78
2023/06/04 03:42:33;;;;;;;1.73;1.10;;;;;;;15.67;80.27;99554.56;5052895;28;20255;-79
2023/06/04 03:44:59;;;;;;;2.97;1.10;;;;;;;15.66;79.74;99547.78;5053766;28;20296;-78
2023/06/04 03:47:26;;;;;;;1.40;1.03;;;;;;;15.68;80.72;99553.63;5052976;28;20201;-79
2023/06/04 03:49:54;;;;;;;0.83;0.80;;;;;;;15.67;81.07;99557.13;5052340;28;20786;-79
2023/06/04 03:52:21;;;;;;;1.10;0.80;;;;;;;15.60;79.73;99547.34;5052030;28;20679;-79
2023/06/04 03:54:48;;;;;;;2.20;0.90;;;;;;;15.59;80.72;99550.88;5052472;28;20298;-79
2023/06/04 03:57:14;;;;;;;1.27;0.70;;;;;;;15.56;80.98;99551.16;5052380;28;20216;-79
2023/06/04 03:59:41;;;;;;;1.57;0.93;;;;;;;15.53;80.20;99556.56;5052213;28;20254;-79
2023/06/04 04:02:08;;;;;;;1.50;1.10;;;;;;;15.55;81.24;99556.41;5053022;28;20214;-79
2023/06/04 04:04:35;;;;;;;1.17;0.83;;;;;;;15.51;81.57;99562.78;5052105;28;20204;-79
2023/06/04 04:07:03;;;;;;;0.77;0.57;;;;;;;15.49;81.80;99560.34;5052848;28;20207;-79
2023/06/04 04:09:30;;;;;;;2.30;0.87;;;;;;;15.50;82.55;99559.38;5052028;28;20200;-79
2023/06/04 04:11:57;;;;;;;1.00;0.90;;;;;;;15.51;83.04;99563.59;5052062;28;20207;-79
2023/06/04 04:14:24;;;;;;;0.97;0.80;;;;;;;15.55;82.89;99570.13;5051788;28;20265;-79
2023/06/04 04:16:50;;;;;;;1.63;0.97;;;;;;;15.52;82.09;99575.53;5052100;28;20217;-79
2023/06/04 04:19:17;;;;;;;1.10;0.80;;;;;;;15.50;83.65;99576.59;5052014;28;20201;-79
2023/06/04 04:21:45;;;;;;;2.20;1.17;;;;;;;15.47;83.51;99577.69;5051730;28;20285;-78
2023/06/04 04:24:23;;;;;;;1.50;1.00;;;;;;;15.46;83.44;99580.41;5052210;28;20257;-78
2023/06/04 04:26:52;;;;;;;0.83;0.63;;;;;;;15.40;83.68;99579.16;5051504;28;20596;-77
2023/06/04 04:29:22;;;;;;;2.23;1.07;;;;;;;15.38;83.00;99581.84;5051974;28;20242;-78
2023/06/04 04:31:49;;;;;;;1.20;1.00;;;;;;;15.38;84.17;99588.75;5052101;28;20250;-77
2023/06/04 04:34:16;;;;;;;1.47;0.90;;;;;;;15.40;84.80;99592.03;5051915;28;20243;-78
2023/06/04 04:36:44;;;;;;;0.80;0.80;;;;;;;15.40;82.85;99592.03;5050884;28;20253;-78
2023/06/04 04:39:11;;;;;;;6.47;1.20;;;;;;;15.38;84.48;99593.91;5051582;28;20220;-77
2023/06/04 04:41:39;;;;;;;1.10;0.83;;;;;;;15.42;85.96;99594.47;5055707;28;20254;-78
2023/06/04 04:44:07;;;;;;;0.63;0.60;;;;;;;15.39;87.77;99591.22;5055619;28;20687;-78
2023/06/04 04:46:33;;;;;;;1.77;1.10;;;;;;;15.35;88.63;99589.84;5056259;28;20227;-78
2023/06/04 04:49:00;;;;;;;1.53;0.90;;;;;;;15.37;90.31;99592.31;5055717;28;20255;-78
2023/06/04 04:51:27;;;;;;;0.80;0.77;;;;;;;15.33;91.36;99586.59;5056322;28;20220;-78
2023/06/04 04:53:55;;;;;;;1.30;1.20;;;;;;;15.27;92.07;99588.84;5055803;28;20206;-78
2023/06/04 04:56:22;;;;;;;1.93;1.33;;;;;;;15.14;91.66;99594.22;5055544;28;20286;-78
2023/06/04 04:58:50;;;;;;;1.30;0.93;;;;;;;15.13;91.87;99590.84;5056118;28;20206;-78
2023/06/04 05:01:17;;;;;;;1.10;1.00;;;;;;;15.12;92.62;99594.34;5055826;28;20217;-78
2023/06/04 05:03:44;;;;;;;1.47;0.77;;;;;;;15.12;93.52;99589.19;5055986;28;20214;-78
2023/06/04 05:06:11;;;;;;;1.00;0.80;;;;;;;15.01;91.02;99599.59;5055581;28;20303;-78
2023/06/04 05:08:38;;;;;;;1.03;0.90;;;;;;;15.04;90.65;99596.75;5054829;28;20195;-78
2023/06/04 05:11:05;;;;;;;0.83;0.70;;;;;;;15.03;90.66;99602.00;5054785;28;20223;-78
2023/06/04 05:13:31;;;;;;;0.80;0.80;;;;;;;15.08;91.81;99602.47;5054553;28;20681;-77
2023/06/04 05:16:06;;;;;;;3.63;1.00;;;;;;;15.11;91.98;99603.00;5055771;28;20800;-77
2023/06/04 05:18:33;;;;;;;0.60;0.60;;;;;;;15.08;92.56;99605.84;5055733;28;20206;-77
2023/06/04 05:21:02;;;;;;;1.23;0.70;;;;;;;15.07;91.43;99606.78;5054697;28;20720;-78
2023/06/04 05:23:29;;;;;;;1.27;0.97;;;;;;;15.12;91.95;99604.63;5055115;28;20583;-78
2023/06/04 05:25:56;;;;;;;0.80;0.80;;;;;;;15.14;90.58;99605.31;5054985;28;20215;-78
2023/06/04 05:28:24;;;;;;;2.10;0.80;;;;;;;15.22;91.36;99611.63;5055572;28;20211;-78
2023/06/04 05:30:58;;;;;;;1.07;0.77;;;;;;;15.23;89.53;99610.66;5054378;28;20663;-78
2023/06/04 05:33:26;;;;;;;1.03;0.90;;;;;;;15.22;89.87;99615.00;5054919;28;20254;-77
2023/06/04 05:35:57;;;;;;;0.90;0.80;;;;;;;15.22;89.72;99619.34;5054532;28;20669;-78
2023/06/04 05:38:25;;;;;;;1.47;0.93;;;;;;;15.26;91.72;99610.41;5054857;28;20203;-77
2023/06/04 05:40:52;;;;;;;0.43;0.43;;;;;;;15.30;90.87;99616.94;5054317;28;20228;-78
2023/06/04 05:43:19;;;;;;;1.40;0.90;;;;;;;15.36;91.03;99619.03;5054901;28;20200;-78
2023/06/04 05:45:46;;;;;;;167.83;9.00;;;;;;;15.32;90.28;99615.03;5053795;28;20310;-78
2023/06/04 05:48:13;;;;;;;2.67;0.90;;;;;;;15.33;90.96;99621.81;5055108;28;20268;-78
2023/06/04 05:50:41;;;;;;;26.20;3.53;;;;;;;15.27;88.12;99620.59;5054954;28;20235;-78
2023/06/04 05:53:08;;;;;;;0.80;0.70;;;;;;;15.33;89.13;99627.81;5054578;28;20199;-77
2023/06/04 05:55:34;;;;;;;1.33;0.97;;;;;;;15.34;90.07;99623.47;5053573;28;20266;-77
2023/06/04 05:58:01;;;;;;;1.33;1.10;;;;;;;15.36;91.43;99626.75;5054064;28;20204;-77
2023/06/04 06:00:28;;;;;;;6.97;1.43;;;;;;;15.36;90.64;99634.47;5054800;28;20243;-77
2023/06/04 06:02:56;;;;;;;1.23;1.10;;;;;;;15.39;89.37;99632.44;5054739;28;20213;-77
2023/06/04 06:05:23;;;;;;;2.60;1.60;;;;;;;15.45;90.01;99641.44;5053873;28;20655;-78
2023/06/04 06:07:51;;;;;;;2.87;1.17;;;;;;;15.49;89.89;99642.81;5053844;28;20210;-77
2023/06/04 06:10:18;;;;;;;3.43;1.43;;;;;;;15.51;89.33;99646.06;5054151;28;20245;-79
2023/06/04 06:12:44;;;;;;;7.10;1.23;;;;;;;15.52;90.01;99642.53;5053870;28;20208;-79
2023/06/04 06:15:12;;;;;;;2.83;1.30;;;;;;;15.55;89.78;99651.78;5054192;28;20286;-79
2023/06/04 06:17:39;;;;;;;2.27;1.33;;;;;;;15.59;89.47;99648.81;5054233;28;20204;-79
2023/06/04 06:20:08;;;;;;;3.60;1.20;;;;;;;15.59;88.96;99656.56;5053182;28;20225;-80
2023/06/04 06:22:35;;;;;;;2.23;1.30;;;;;;;15.64;88.74;99656.16;5053573;28;20267;-79
2023/06/04 06:25:05;;;;;;;5.40;1.80;;;;;;;15.59;88.82;99648.81;5053808;28;20228;-79
2023/06/04 06:27:32;;;;;;;1.20;1.10;;;;;;;15.55;89.41;99651.78;5053361;28;20211;-79
2023/06/04 06:29:59;;;;;;;1.33;1.17;;;;;;;15.59;91.30;99659.13;5053072;28;20227;-79
2023/06/04 06:32:27;;;;;;;3.10;1.40;;;;;;;15.68;90.36;99656.75;5053691;28;20198;-79
2023/06/04 06:34:53;;;;;;;1.63;1.10;;;;;;;15.74;89.96;99651.91;5053025;28;20299;-79
2023/06/04 06:37:20;;;;;;;2.53;1.30;;;;;;;15.72;88.75;99658.13;5053142;28;20205;-79
2023/06/04 06:39:47;;;;;;;1.70;1.30;;;;;;;15.74;88.91;99651.09;5053525;28;20353;-79
2023/06/04 06:42:17;;;;;;;3.57;1.30;;;;;;;15.67;89.14;99657.66;5053339;28;20599;-79
2023/06/04 06:44:44;;;;;;;2.50;1.23;;;;;;;15.68;90.95;99656.75;5053315;28;20280;-78
2023/06/04 06:47:13;;;;;;;1.47;1.37;;;;;;;15.68;89.97;99664.47;5053046;28;20761;-79
2023/06/04 06:49:40;;;;;;;1.50;1.30;;;;;;;15.70;91.22;99662.59;5052327;28;20261;-79
2023/06/04 06:52:07;;;;;;;1.87;1.30;;;;;;;15.67;91.00;99665.41;5052782;28;20242;-79
2023/06/04 06:54:34;;;;;;;1.53;1.23;;;;;;;15.74;91.49;99666.56;5055073;28;20237;-80
2023/06/04 06:57:01;;;;;;;2.50;1.10;;;;;;;15.79;91.68;99666.97;5072770;28;20199;-80
2023/06/04 06:59:29;;;;;;;1.57;1.10;;;;;;;15.84;90.57;99667.41;5071641;28;20289;-80
2023/06/04 07:01:56;;;;;;;2.00;1.27;;;;;;;15.81;91.03;99672.81;5071612;28;20198;-81
2023/06/04 07:04:23;;;;;;;1.93;1.40;;;;;;;15.86;91.78;99670.66;5071738;28;20643;-79
2023/06/04 07:06:50;;;;;;;1.80;1.33;;;;;;;15.90;91.41;99677.19;5072592;28;20228;-80
2023/06/04 07:09:17;;;;;;;3.17;1.50;;;;;;;15.90;90.08;99673.78;5072099;28;20726;-80
2023/06/04 07:11:43;;;;;;;2.80;1.20;;;;;;;15.88;91.63;99679.06;5071587;28;20220;-80
2023/06/04 07:14:10;;;;;;;2.57;1.40;;;;;;;15.90;91.34;99677.19;5072010;28;20481;-80
2023/06/04 07:16:38;;;;;;;2.00;1.30;;;;;;;15.97;92.34;99687.78;5071347;28;20781;-80
2023/06/04 07:19:05;;;;;;;1.53;1.40;;;;;;;16.00;92.94;99688.38;5072495;28;20211;-80
2023/06/04 07:21:32;;;;;;;2.03;1.30;;;;;;;16.06;91.00;99682.69;5071737;28;20217;-79
2023/06/04 07:23:59;;;;;;;1.93;1.10;;;;;;;16.11;93.10;99686.63;5071728;28;20198;-79
2023/06/04 07:26:30;;;;;;;3.17;1.50;;;;;;;16.13;92.26;99677.00;5070505;28;20294;-79
2023/06/04 07:28:57;;;;;;;2.07;1.43;;;;;;;16.10;92.59;99688.38;5071460;28;20668;-79
2023/06/04 07:31:24;;;;;;;1.83;1.30;;;;;;;16.12;93.11;99690.84;5071138;28;20214;-78
2023/06/04 07:33:53;;;;;;;2.80;1.27;;;;;;;16.12;93.97;99685.69;5072899;28;20334;-78
2023/06/04 07:36:20;;;;;;;2.93;1.30;;;;;;;16.18;94.36;99687.75;5072600;28;20242;-78
2023/06/04 07:38:47;;;;;;;1.93;1.40;;;;;;;16.22;94.20;99686.53;5073083;28;20203;-78
2023/06/04 07:41:14;;;;;;;1.30;1.20;;;;;;;16.35;96.25;99691.41;5073126;28;20215;-78
2023/06/04 07:43:41;;;;;;;2.53;1.43;;;;;;;16.43;95.18;99694.16;5072616;28;20208;-78
2023/06/04 07:46:09;;;;;;;2.63;1.50;;;;;;;16.50;95.73;99690.09;5071244;28;20252;-78
2023/06/04 07:48:36;;;;;;;3.07;1.60;;;;;;;16.52;95.74;99685.59;5073283;28;20275;-78
2023/06/04 07:51:05;;;;;;;3.50;1.37;;;;;;;16.50;93.26;99696.09;5071620;28;20218;-79
2023/06/04 07:53:32;;;;;;;5.37;1.50;;;;;;;16.61;95.97;99694.31;5072033;28;20211;-79
2023/06/04 07:55:59;;;;;;;2.17;1.50;;;;;;;16.69;94.35;99699.63;5071538;28;20375;-79
2023/06/04 07:58:26;;;;;;;3.03;1.77;;;;;;;16.74;94.05;99692.31;5072324;28;20631;-79
2023/06/04 08:00:55;;;;;;;3.63;1.40;;;;;;;16.91;94.91;99704.56;5072170;28;20536;-79
2023/06/04 08:03:21;;;;;;;3.43;1.70;;;;;;;17.18;93.77;99703.03;5071893;28;20666;-79
2023/06/04 08:05:48;;;;;;;3.10;1.50;;;;;;;17.49;94.46;99702.88;5072162;28;20266;-79
2023/06/04 08:08:16;;;;;;;3.93;1.60;;;;;;;17.72;93.88;99698.97;5072049;28;20205;-79
2023/06/04 08:10:43;;;;;;;1.70;1.40;;;;;;;18.04;94.58;99708.97;5071550;28;20220;-79
2023/06/04 08:13:10;;;;;;;3.13;1.60;;;;;;;18.16;89.43;99709.56;5071860;28;20198;-79
2023/06/04 08:15:37;;;;;;;3.17;1.53;;;;;;;18.31;90.91;99712.50;5070193;28;20340;-79
2023/06/04 08:18:04;;;;;;;1.63;1.47;;;;;;;18.45;86.68;99713.78;5071990;28;20259;-79
2023/06/04 08:20:31;;;;;;;5.20;1.87;;;;;;;18.43;86.70;99723.47;5071068;28;20227;-79
2023/06/04 08:22:58;;;;;;;2.23;1.53;;;;;;;18.51;88.77;99720.97;5071600;28;20201;-79
2023/06/04 08:25:26;;;;;;;2.17;1.40;;;;;;;18.49;88.84;99725.47;5071194;28;20226;-79
2023/06/04 08:27:53;;;;;;;4.57;1.90;;;;;;;18.47;88.45;99725.63;5071623;28;20242;-79
2023/06/04 08:30:20;;;;;;;1.97;1.70;;;;;;;18.47;89.38;99740.31;5071598;28;20229;-79
2023/06/04 08:32:46;;;;;;;5.60;1.83;;;;;;;18.41;89.34;99739.13;5071408;28;20207;-79
2023/06/04 08:35:13;;;;;;;6.27;2.10;;;;;;;18.39;90.23;99735.88;5071635;28;20326;-79
2023/06/04 08:37:41;;;;;;;3.27;1.73;;;;;;;18.39;89.71;99750.63;5071989;28;20785;-79
2023/06/04 08:40:09;;;;;;;2.87;1.77;;;;;;;18.32;91.20;99756.38;5070987;28;20663;-76
2023/06/04 08:42:41;;;;;;;2.80;1.67;;;;;;;18.39;91.59;99746.25;5070732;28;20209;-79
2023/06/04 08:45:12;;;;;;;3.20;1.73;;;;;;;18.45;91.01;99742.25;5070778;28;20218;-79
2023/06/04 08:47:41;;;;;;;4.90;1.67;;;;;;;18.48;92.22;99749.75;5070817;28;20200;-78
2023/06/04 08:50:11;;;;;;;5.20;1.60;;;;;;;18.44;90.42;99756.16;5070409;28;20733;-78
2023/06/04 08:52:39;;;;;;;3.87;1.60;;;;;;;18.45;90.64;99752.63;5070365;28;20202;-79
2023/06/04 08:55:07;;;;;;;2.33;1.40;;;;;;;18.49;90.67;99754.75;5070850;28;20255;-79
2023/06/04 08:57:34;;;;;;;3.27;1.70;;;;;;;18.57;91.60;99753.22;5070796;28;20205;-76
2023/06/04 09:00:05;;;;;;;2.40;1.70;;;;;;;18.61;90.51;99757.16;5070818;28;20231;-79
2023/06/04 09:02:32;;;;;;;2.43;1.57;;;;;;;18.69;90.67;99760.63;5070070;28;20641;-78
2023/06/04 09:04:59;;;;;;;3.23;1.60;;;;;;;18.63;89.74;99761.22;5069024;28;20229;-80
2023/06/04 09:07:26;;;;;;;6.23;1.77;;;;;;;18.78;91.36;99764.97;5070300;28;20204;-79
2023/06/04 09:09:53;;;;;;;2.87;1.90;;;;;;;18.91;90.43;99769.00;5070863;28;20232;-79
2023/06/04 09:12:25;;;;;;;3.83;1.87;;;;;;;18.99;89.54;99762.09;5069760;28;20208;-79
2023/06/04 09:14:52;;;;;;;2.63;1.83;;;;;;;19.16;90.51;99768.22;5070047;28;20225;-79
2023/06/04 09:17:24;;;;;;;2.53;1.70;;;;;;;19.28;91.06;99771.41;5070617;28;20732;-78
2023/06/04 09:19:53;;;;;;;5.37;1.80;;;;;;;19.41;89.65;99760.66;5070433;28;20597;-80
2023/06/04 09:22:19;;;;;;;2.73;1.43;;;;;;;19.54;89.74;99766.25;5070181;28;20199;-80
2023/06/04 09:24:49;;;;;;;6.80;1.93;;;;;;;19.74;93.86;99758.28;5070627;28;20205;-80
2023/06/04 09:27:17;;;;;;;3.27;1.80;;;;;;;19.96;89.78;99760.38;5073130;28;20206;-79
2023/06/04 09:29:52;;;;;;;2.77;1.70;;;;;;;20.28;91.93;99761.47;5073700;28;20204;-80
2023/06/04 09:32:23;;;;;;;2.90;1.80;;;;;;;20.26;82.33;99760.81;5073479;28;20262;-79
2023/06/04 09:34:52;;;;;;;2.37;1.50;;;;;;;20.42;85.00;99766.06;5073821;28;20282;-79
2023/06/04 09:37:21;;;;;;;2.27;1.50;;;;;;;20.54;81.29;99764.84;5073522;28;20237;-80
2023/06/04 09:39:54;;;;;;;3.43;1.70;;;;;;;20.51;81.06;99762.53;5073891;28;20779;-79
2023/06/04 09:42:21;;;;;;;2.00;1.70;;;;;;;20.58;82.50;99766.13;5073743;28;20232;-80
2023/06/04 09:44:48;;;;;;;2.33;1.80;;;;;;;20.57;80.98;99769.72;5073884;28;20238;-80
2023/06/04 09:47:15;;;;;;;1.93;1.70;;;;;;;20.60;82.69;99763.41;5073732;28;20203;-80
2023/06/04 09:49:44;;;;;;;1.90;1.70;;;;;;;20.65;82.76;99762.91;5073300;28;20202;-80
2023/06/04 09:52:12;;;;;;;2.43;1.80;;;;;;;20.69;82.85;99756.44;5073196;28;20203;-80
2023/06/04 09:54:41;;;;;;;2.33;1.63;;;;;;;20.77;84.74;99764.25;5072997;28;20211;-80
2023/06/04 09:57:16;;;;;;;2.37;1.60;;;;;;;20.95;83.47;99764.91;5072849;28;20239;-80
2023/06/04 09:59:45;;;;;;;2.00;1.60;;;;;;;21.12;83.36;99763.13;5073103;28;20270;-80
2023/06/04 10:02:13;;;;;;;1.93;1.60;;;;;;;21.27;83.96;99765.91;5072417;28;20205;-80
2023/06/04 10:04:42;;;;;;;2.83;1.90;;;;;;;21.39;82.34;99775.03;5072565;28;20256;-80
2023/06/04 10:07:12;;;;;;;2.07;1.70;;;;;;;21.50;82.33;99780.84;5072959;28;20198;-80
2023/06/04 10:09:45;;;;;;;1.70;1.43;;;;;;;21.57;78.90;99763.63;5072308;28;20283;-80
2023/06/04 10:12:15;;;;;;;2.30;1.60;;;;;;;21.59;77.03;99774.69;5072264;28;20211;-80
2023/06/04 10:14:46;;;;;;;4.07;1.70;;;;;;;21.64;79.13;99772.38;5072467;28;20281;-80
2023/06/04 10:17:16;;;;;;;2.40;1.70;;;;;;;21.61;75.96;99767.50;5072436;28;20230;-80
2023/06/04 10:19:44;;;;;;;2.50;1.60;;;;;;;21.69;80.47;99767.50;5072759;28;20587;-80
2023/06/04 10:22:13;;;;;;;2.33;1.80;;;;;;;21.75;81.79;99774.63;5072310;28;20622;-80
2023/06/04 10:24:39;;;;;;;2.45;1.70;;;;;;;21.78;76.30;99776.91;5072303;28;20653;-80
2023/06/04 10:27:10;;;;;;;2.17;1.52;;;;;;;21.82;78.81;99774.81;5072241;28;20195;-80
2023/06/04 10:29:37;;;;;;;1.83;1.60;;;;;;;21.80;75.33;99776.75;5072929;28;20599;-79
2023/06/04 10:32:05;;;;;;;2.15;1.55;;;;;;;21.92;76.55;99773.63;5073067;28;20593;-80
2023/06/04 10:34:32;;;;;;;3.25;1.80;;;;;;;22.01;75.75;99776.19;5073789;28;20203;-80
2023/06/04 10:36:59;;;;;;;4.28;1.80;;;;;;;21.96;76.18;99770.69;5074708;28;20234;-80
2023/06/04 10:39:29;;;;;;;2.58;1.88;;;;;;;22.04;75.07;99771.47;5071664;28;20207;-81
2023/06/04 10:42:00;;;;;;;2.83;1.92;;;;;;;22.13;77.13;99761.81;5072641;28;20206;-81
2023/06/04 10:44:27;;;;;;;2.38;1.90;;;;;;;22.21;75.74;99769.66;5072178;28;20698;-80
2023/06/04 10:46:54;;;;;;;2.78;1.70;;;;;;;22.28;74.77;99765.41;5072426;28;20199;-81
2023/06/04 10:49:28;;;;;;;2.72;1.90;;;;;;;22.45;77.79;99765.28;5071610;28;20206;-82
2023/06/04 10:51:57;;;;;;;2.75;1.80;;;;;;;22.51;75.67;99764.59;5072189;28;20196;-80
2023/06/04 10:54:25;;;;;;;2.35;1.70;;;;;;;22.57;76.59;99753.50;5072221;28;20290;-80
2023/06/04 10:56:54;;;;;;;2.33;1.75;;;;;;;22.61;75.00;99760.00;5071629;28;20688;-81
2023/06/04 10:59:21;;;;;;;4.15;1.67;;;;;;;22.74;74.35;99749.81;5071377;28;20209;-80
2023/06/04 11:01:48;;;;;;;2.55;1.70;;;;;;;22.82;73.57;99760.19;5071696;28;20229;-80
2023/06/04 11:04:25;;;;;;;2.60;1.83;;;;;;;22.96;77.58;99750.84;5071779;28;20202;-79
2023/06/04 11:07:03;;;;;;;3.15;1.90;;;;;;;23.08;75.03;99761.66;5071699;28;20226;-80
2023/06/04 11:09:30;;;;;;;2.00;1.55;;;;;;;23.01;70.63;99765.97;5071372;28;20666;-80
2023/06/04 11:11:59;;;;;;;2.70;1.75;;;;;;;22.99;73.29;99767.94;5071662;28;20203;-80
2023/06/04 11:14:26;;;;;;;2.72;1.95;;;;;;;23.12;75.35;99765.53;5071667;28;20616;-80
2023/06/04 11:16:53;;;;;;;3.05;1.83;;;;;;;23.10;71.40;99764.91;5071588;28;20234;-80
2023/06/04 11:19:20;;;;;;;5.05;2.17;;;;;;;23.09;74.04;99752.84;5072018;28;20206;-80
2023/06/04 11:21:47;;;;;;;2.70;1.90;;;;;;;23.24;71.28;99756.31;5071549;28;20214;-80
2023/06/04 11:24:14;;;;;;;3.15;1.60;;;;;;;23.38;75.01;99757.31;5071141;28;20198;-80
2023/06/04 11:26:41;;;;;;;2.55;1.98;;;;;;;23.45;74.38;99754.81;5071079;28;20396;-80
2023/06/04 11:29:11;;;;;;;3.38;2.08;;;;;;;23.54;74.68;99756.38;5070670;28;20222;-80
2023/06/04 11:31:43;;;;;;;3.55;2.20;;;;;;;23.69;75.09;99749.34;5070940;28;20223;-81
2023/06/04 11:34:11;;;;;;;3.65;2.00;;;;;;;23.86;71.74;99744.00;5071079;28;20206;-81
2023/06/04 11:36:38;;;;;;;2.22;1.60;;;;;;;24.08;73.59;99748.28;5071379;28;20236;-81